EmailTwitter


Observations de surface / France / LFPO (07149)

Régions: Québec | Canada | États-Unis | Europe | France | UK | Ailleurs
Station
Affichage
Infos & localisation pour LFPO (07149) | Aide pour décoder les METARs

Observations prises le 2019-04-23 à 17H30 UTC à PARIS/ORLY, FR (LFPO)

Température: 19.0 Celsius

Point de rosée: 11.0 Celsius

Humidité relative: 60%

Vents: Sud-sud-ouest à 13 km/h ou 7 noeuds.

Pression au niveau moyen de la mer: 99.50 kilopascals.

Observation METAR:

LFPO 231730Z 20007KT 170V230 CAVOK 19/11 Q0995 NOSIG=